Time,TemperatureF,DewpointF,PressureIn,WindDirection,WindDirectionDegrees,WindSpeedMPH,WindSpeedGustMPH,Humidity,HourlyPrecipIn,Conditions,Clouds,dailyrainin,SoftwareType,DateUTC
2013-01-14 00:03:00,4.0,0.0,30.29,WSW,252,2.0,3.0,83,0.00,,SKC,0.00,VWS V14.01,2013-01-14 06:03:00,
2013-01-14 00:08:00,3.9,-0.1,30.29,WNW,302,4.0,4.0,83,0.00,,SKC,0.00,VWS V14.01,2013-01-14 06:08:00,
2013-01-14 00:13:00,3.9,-0.1,30.29,WNW,290,0.0,0.0,83,0.00,,SKC,0.00,VWS V14.01,2013-01-14 06:13:00,
2013-01-14 00:18:00,3.9,-0.1,30.29,West,281,0.0,1.0,83,0.00,,SKC,0.00,VWS V14.01,2013-01-14 06:18:00,
2013-01-14 00:23:00,3.9,-0.1,30.29,West,275,0.0,3.0,83,0.00,,SKC,0.00,VWS V14.01,2013-01-14 06:23:00,
2013-01-14 00:28:00,3.9,0.2,30.29,SW,232,1.0,3.0,84,0.00,,SKC,0.00,VWS V14.01,2013-01-14 06:28:00,
2013-01-14 00:33:00,3.8,0.1,30.29,WNW,292,0.0,3.0,84,0.00,,SKC,0.00,VWS V14.01,2013-01-14 06:33:00,
2013-01-14 00:38:00,3.8,0.1,30.30,NW,315,0.0,2.0,84,0.00,,SKC,0.00,VWS V14.01,2013-01-14 06:38:00,
2013-01-14 00:43:00,3.9,0.2,30.30,WSW,257,0.0,4.0,84,0.00,,SKC,0.00,VWS V14.01,2013-01-14 06:43:00,
2013-01-14 00:48:00,4.0,0.2,30.30,SSW,206,0.0,1.0,84,0.00,,SKC,0.00,VWS V14.01,2013-01-14 06:48:00,
2013-01-14 00:53:00,3.9,0.2,30.30,WSW,254,0.0,3.0,84,0.00,,SKC,0.00,VWS V14.01,2013-01-14 06:53:00,
2013-01-14 00:58:00,3.9,0.2,30.30,WSW,250,1.0,2.0,84,0.00,,SKC,0.00,VWS V14.01,2013-01-14 06:58:00,
2013-01-14 01:03:00,3.9,0.2,30.30,West,262,0.0,4.0,84,0.00,,SKC,0.00,VWS V14.01,2013-01-14 07:03:00,
2013-01-14 01:08:00,4.0,0.2,30.30,West,275,0.0,3.0,84,0.00,,SKC,0.00,VWS V14.01,2013-01-14 07:08:00,
2013-01-14 01:13:00,4.0,0.2,30.30,West,276,0.0,3.0,84,0.00,,SKC,0.00,VWS V14.01,2013-01-14 07:13:00,
2013-01-14 01:18:00,4.0,0.2,30.30,SW,219,2.0,3.0,84,0.00,,SKC,0.00,VWS V14.01,2013-01-14 07:18:00,
2013-01-14 01:23:00,4.0,0.2,30.29,WNW,291,1.0,4.0,84,0.00,,SKC,0.00,VWS V14.01,2013-01-14 07:23:00,
2013-01-14 01:28:00,3.9,0.2,30.30,West,263,0.0,1.0,84,0.00,,SKC,0.00,VWS V14.01,2013-01-14 07:28:00,
2013-01-14 01:33:00,3.9,0.2,30.30,West,262,1.0,6.0,84,0.00,,SKC,0.00,VWS V14.01,2013-01-14 07:33:00,
2013-01-14 01:38:00,3.9,0.2,30.30,West,275,0.0,2.0,84,0.00,,SKC,0.00,VWS V14.01,2013-01-14 07:38:00,
2013-01-14 01:43:00,3.8,-0.2,30.30,West,281,0.0,1.0,83,0.00,,SKC,0.00,VWS V14.01,2013-01-14 07:43:00,
2013-01-14 01:48:00,3.8,-0.2,30.30,West,265,6.0,6.0,83,0.00,,SKC,0.00,VWS V14.01,2013-01-14 07:48:00,
2013-01-14 01:53:00,3.8,-0.2,30.31,West,265,3.0,3.0,83,0.00,,SKC,0.00,VWS V14.01,2013-01-14 07:53:00,
2013-01-14 01:58:00,3.8,-0.2,30.31,West,260,1.0,5.0,83,0.00,,SKC,0.00,VWS V14.01,2013-01-14 07:58:00,
2013-01-14 02:03:00,3.8,-0.2,30.31,NW,313,0.0,4.0,83,0.00,,SKC,0.00,VWS V14.01,2013-01-14 08:03:00,
2013-01-14 02:08:00,3.8,-0.2,30.32,West,279,1.0,5.0,83,0.00,,SKC,0.00,VWS V14.01,2013-01-14 08:08:00,
2013-01-14 02:13:00,3.7,-0.3,30.32,WNW,292,1.0,2.0,83,0.00,,SKC,0.00,VWS V14.01,2013-01-14 08:13:00,
2013-01-14 02:18:00,3.7,-0.3,30.32,WNW,298,0.0,1.0,83,0.00,,SKC,0.00,VWS V14.01,2013-01-14 08:18:00,
2013-01-14 02:23:00,3.6,-0.4,30.32,WNW,298,0.0,1.0,83,0.00,,SKC,0.00,VWS V14.01,2013-01-14 08:23:00,
2013-01-14 02:28:00,3.6,-0.4,30.32,West,261,3.0,3.0,83,0.00,,SKC,0.00,VWS V14.01,2013-01-14 08:28:00,
2013-01-14 02:33:00,3.5,-0.5,30.33,WSW,257,3.0,4.0,83,0.00,,SKC,0.00,VWS V14.01,2013-01-14 08:33:00,
2013-01-14 02:38:00,3.5,-0.8,30.33,NW,304,0.0,1.0,82,0.00,,SKC,0.00,VWS V14.01,2013-01-14 08:38:00,
2013-01-14 02:43:00,3.4,-0.9,30.33,NW,307,2.0,6.0,82,0.00,,SKC,0.00,VWS V14.01,2013-01-14 08:43:00,
2013-01-14 02:48:00,3.2,-1.0,30.33,WNW,290,0.0,4.0,82,0.00,,SKC,0.00,VWS V14.01,2013-01-14 08:48:00,
2013-01-14 02:53:00,3.1,-1.1,30.33,WNW,300,5.0,5.0,82,0.00,,SKC,0.00,VWS V14.01,2013-01-14 08:53:00,
2013-01-14 02:58:00,2.9,-1.3,30.33,WNW,295,1.0,5.0,82,0.00,,SKC,0.00,VWS V14.01,2013-01-14 08:58:00,
2013-01-14 03:03:00,2.8,1.0,30.33,NW,322,2.0,6.0,92,0.00,,SKC,0.00,VWS V14.01,2013-01-14 09:03:00,
2013-01-14 03:08:00,2.7,-1.5,30.33,WNW,298,0.0,3.0,82,0.00,,SKC,0.00,VWS V14.01,2013-01-14 09:08:00,
2013-01-14 03:13:00,2.6,-1.6,30.33,WNW,292,1.0,5.0,82,0.00,,SKC,0.00,VWS V14.01,2013-01-14 09:13:00,
2013-01-14 03:18:00,2.4,-1.8,30.33,NW,315,2.0,6.0,82,0.00,,SKC,0.00,VWS V14.01,2013-01-14 09:18:00,
2013-01-14 03:23:00,2.2,-2.0,30.33,NW,311,4.0,5.0,82,0.00,,SKC,0.00,VWS V14.01,2013-01-14 09:23:00,
2013-01-14 03:28:00,2.1,-2.1,30.33,WNW,300,6.0,7.0,82,0.00,,SKC,0.00,VWS V14.01,2013-01-14 09:28:00,
2013-01-14 03:33:00,1.9,-2.3,30.33,WNW,286,3.0,5.0,82,0.00,,SKC,0.00,VWS V14.01,2013-01-14 09:33:00,
2013-01-14 03:38:00,1.8,-2.4,30.33,NW,304,2.0,3.0,82,0.00,,SKC,0.00,VWS V14.01,2013-01-14 09:38:00,
2013-01-14 03:43:00,1.7,-2.8,30.33,NW,307,2.0,3.0,81,0.00,,SKC,0.00,VWS V14.01,2013-01-14 09:43:00,
2013-01-14 03:48:00,1.5,-3.0,30.34,West,275,2.0,4.0,81,0.00,,SKC,0.00,VWS V14.01,2013-01-14 09:48:00,
2013-01-14 03:53:00,1.5,-2.7,30.34,SW,233,0.0,2.0,82,0.00,,SKC,0.00,VWS V14.01,2013-01-14 09:53:00,
2013-01-14 03:58:00,1.4,-2.8,30.34,West,269,1.0,3.0,82,0.00,,SKC,0.00,VWS V14.01,2013-01-14 09:58:00,
2013-01-14 04:03:00,1.2,-3.0,30.34,WNW,298,0.0,4.0,82,0.00,,SKC,0.00,VWS V14.01,2013-01-14 10:03:00,
2013-01-14 04:08:00,1.1,-3.1,30.34,WNW,284,3.0,4.0,82,0.00,,SKC,0.00,VWS V14.01,2013-01-14 10:08:00,
2013-01-14 04:13:00,1.0,-3.2,30.33,NW,306,3.0,5.0,82,0.00,,SKC,0.00,VWS V14.01,2013-01-14 10:13:00,
2013-01-14 04:18:00,0.9,-3.5,30.34,NW,307,3.0,5.0,81,0.00,,SKC,0.00,VWS V14.01,2013-01-14 10:18:00,
2013-01-14 04:23:00,0.8,-3.4,30.34,NW,317,0.0,1.0,82,0.00,,SKC,0.00,VWS V14.01,2013-01-14 10:23:00,
2013-01-14 04:28:00,0.7,-3.5,30.34,NW,312,1.0,5.0,82,0.00,,SKC,0.00,VWS V14.01,2013-01-14 10:28:00,
2013-01-14 04:33:00,0.6,-3.6,30.34,West,275,0.0,2.0,82,0.00,,SKC,0.00,VWS V14.01,2013-01-14 10:33:00,
2013-01-14 04:38:00,0.5,-3.7,30.34,WNW,285,0.0,2.0,82,0.00,,SKC,0.00,VWS V14.01,2013-01-14 10:38:00,
2013-01-14 04:43:00,0.3,-3.9,30.34,WNW,284,0.0,3.0,82,0.00,,SKC,0.00,VWS V14.01,2013-01-14 10:43:00,
2013-01-14 04:48:00,0.2,-4.0,30.34,NW,310,3.0,3.0,82,0.00,,SKC,0.00,VWS V14.01,2013-01-14 10:48:00,
2013-01-14 04:53:00,0.2,-4.0,30.34,NW,312,1.0,5.0,82,0.00,,SKC,0.00,VWS V14.01,2013-01-14 10:53:00,
2013-01-14 04:58:00,0.1,-4.1,30.34,WNW,303,2.0,5.0,82,0.00,,SKC,0.00,VWS V14.01,2013-01-14 10:58:00,
2013-01-14 05:03:00,0.1,-4.2,30.34,WNW,294,2.0,4.0,82,0.00,,SKC,0.00,VWS V14.01,2013-01-14 11:03:00,
2013-01-14 05:08:00,0.1,-4.2,30.34,WNW,295,2.0,4.0,82,0.00,,SKC,0.00,VWS V14.01,2013-01-14 11:08:00,
2013-01-14 05:13:00,-0.1,-4.3,30.34,WNW,294,4.0,5.0,82,0.00,,SKC,0.00,VWS V14.01,2013-01-14 11:13:00,
2013-01-14 05:18:00,-0.2,-4.4,30.35,WNW,298,1.0,2.0,82,0.00,,SKC,0.00,VWS V14.01,2013-01-14 11:18:00,
2013-01-14 05:23:00,-0.3,-4.5,30.35,West,277,3.0,3.0,82,0.00,,SKC,0.00,VWS V14.01,2013-01-14 11:23:00,
2013-01-14 05:28:00,-0.4,-4.6,30.35,NW,325,1.0,2.0,82,0.00,,SKC,0.00,VWS V14.01,2013-01-14 11:28:00,
2013-01-14 05:33:00,-0.5,-4.7,30.36,WNW,295,2.0,4.0,82,0.00,,SKC,0.00,VWS V14.01,2013-01-14 11:33:00,
2013-01-14 05:38:00,-0.6,-4.8,30.36,SW,224,2.0,3.0,82,0.00,,SKC,0.00,VWS V14.01,2013-01-14 11:38:00,
2013-01-14 05:43:00,-0.6,-4.8,30.36,West,276,0.0,3.0,82,0.00,,SKC,0.00,VWS V14.01,2013-01-14 11:43:00,
2013-01-14 05:48:00,-0.7,-4.9,30.36,WNW,288,0.0,2.0,82,0.00,,SKC,0.00,VWS V14.01,2013-01-14 11:48:00,
2013-01-14 05:53:00,-0.9,-5.1,30.37,West,281,3.0,3.0,82,0.00,,SKC,0.00,VWS V14.01,2013-01-14 11:53:00,
2013-01-14 05:58:00,-0.9,-5.1,30.37,NW,315,1.0,4.0,82,0.00,,SKC,0.00,VWS V14.01,2013-01-14 11:58:00,
2013-01-14 06:03:00,-1.0,-5.2,30.37,West,268,1.0,2.0,82,0.00,,SKC,0.00,VWS V14.01,2013-01-14 12:03:00,
2013-01-14 06:08:00,-1.0,-5.2,30.38,West,265,0.0,3.0,82,0.00,,SKC,0.00,VWS V14.01,2013-01-14 12:08:00,
2013-01-14 06:13:00,-1.1,-5.3,30.38,West,277,3.0,3.0,82,0.00,,SKC,0.00,VWS V14.01,2013-01-14 12:13:00,
2013-01-14 06:18:00,-1.0,-5.2,30.39,West,269,0.0,2.0,82,0.00,,SKC,0.00,VWS V14.01,2013-01-14 12:18:00,
2013-01-14 06:23:00,-1.1,-5.3,30.39,WSW,249,0.0,0.0,82,0.00,,SKC,0.00,VWS V14.01,2013-01-14 12:23:00,
2013-01-14 06:28:00,-1.2,-5.3,30.39,WSW,250,0.0,2.0,82,0.00,,SKC,0.00,VWS V14.01,2013-01-14 12:28:00,
2013-01-14 06:33:00,-1.3,-5.4,30.39,WSW,250,0.0,1.0,82,0.00,,SKC,0.00,VWS V14.01,2013-01-14 12:33:00,
2013-01-14 06:38:00,-1.4,-5.6,30.40,WSW,249,0.0,1.0,82,0.00,,SKC,0.00,VWS V14.01,2013-01-14 12:38:00,
2013-01-14 06:43:00,-1.4,-5.6,30.40,WSW,256,0.0,0.0,82,0.00,,SKC,0.00,VWS V14.01,2013-01-14 12:43:00,
2013-01-14 06:48:00,-1.4,-5.6,30.40,WSW,253,0.0,1.0,82,0.00,,SKC,0.00,VWS V14.01,2013-01-14 12:48:00,
2013-01-14 06:53:00,-1.4,-5.6,30.40,WSW,253,1.0,2.0,82,0.00,,SKC,0.00,VWS V14.01,2013-01-14 12:53:00,
2013-01-14 06:58:00,-1.6,-5.7,30.41,WSW,254,0.0,3.0,82,0.00,,SKC,0.00,VWS V14.01,2013-01-14 12:58:00,
2013-01-14 07:03:00,-1.7,-5.8,30.41,WSW,254,0.0,1.0,82,0.00,,SKC,0.00,VWS V14.01,2013-01-14 13:03:00,
2013-01-14 07:08:00,-1.8,-5.9,30.42,WSW,255,0.0,2.0,82,0.00,,SKC,0.00,VWS V14.01,2013-01-14 13:08:00,
2013-01-14 07:13:00,-1.9,-6.0,30.42,WSW,256,2.0,2.0,82,0.00,,SKC,0.00,VWS V14.01,2013-01-14 13:13:00,
2013-01-14 07:18:00,-1.8,-5.7,30.42,WSW,245,2.0,4.0,83,0.00,,SKC,0.00,VWS V14.01,2013-01-14 13:18:00,
2013-01-14 07:23:00,-1.7,-5.6,30.42,West,275,0.0,2.0,83,0.00,,SKC,0.00,VWS V14.01,2013-01-14 13:23:00,
2013-01-14 07:28:00,-1.7,-5.6,30.42,West,259,0.0,3.0,83,0.00,,SKC,0.00,VWS V14.01,2013-01-14 13:28:00,
2013-01-14 07:33:00,-1.7,-5.6,30.42,West,259,1.0,2.0,83,0.00,,SKC,0.00,VWS V14.01,2013-01-14 13:33:00,
2013-01-14 07:38:00,-1.7,-5.6,30.42,West,260,0.0,1.0,83,0.00,,SKC,0.00,VWS V14.01,2013-01-14 13:38:00,
2013-01-14 07:43:00,-1.8,-5.9,30.42,WNW,289,0.0,2.0,82,0.00,,SKC,0.00,VWS V14.01,2013-01-14 13:43:00,
2013-01-14 07:48:00,-1.8,-5.9,30.42,West,281,0.0,2.0,82,0.00,,SKC,0.00,VWS V14.01,2013-01-14 13:48:00,
2013-01-14 07:53:00,-1.9,-6.0,30.43,West,272,0.0,1.0,82,0.00,,SKC,0.00,VWS V14.01,2013-01-14 13:53:00,
2013-01-14 07:58:00,-2.0,-6.1,30.43,West,275,1.0,2.0,82,0.00,,SKC,0.00,VWS V14.01,2013-01-14 13:58:00,
2013-01-14 08:03:00,-2.0,-6.1,30.43,West,275,1.0,2.0,82,0.00,,SKC,0.00,VWS V14.01,2013-01-14 14:03:00,
2013-01-14 08:08:00,-2.1,-6.2,30.43,West,259,0.0,2.0,82,0.00,,SKC,0.00,VWS V14.01,2013-01-14 14:08:00,
2013-01-14 08:13:00,-2.1,-6.2,30.44,West,263,1.0,1.0,82,0.00,,SKC,0.00,VWS V14.01,2013-01-14 14:13:00,
2013-01-14 08:18:00,-2.0,-5.9,30.44,WSW,256,0.0,1.0,83,0.00,,SKC,0.00,VWS V14.01,2013-01-14 14:18:00,
2013-01-14 08:23:00,-1.9,-5.8,30.44,WSW,256,0.0,1.0,83,0.00,,SKC,0.00,VWS V14.01,2013-01-14 14:23:00,
2013-01-14 08:28:00,-1.8,-5.7,30.45,WSW,257,2.0,2.0,83,0.00,,SKC,0.00,VWS V14.01,2013-01-14 14:28:00,
2013-01-14 08:33:00,-1.7,-5.6,30.45,WSW,257,0.0,1.0,83,0.00,,SKC,0.00,VWS V14.01,2013-01-14 14:33:00,
2013-01-14 08:38:00,-1.6,-5.5,30.45,WSW,257,1.0,1.0,83,0.00,,SKC,0.00,VWS V14.01,2013-01-14 14:38:00,
2013-01-14 08:43:00,-1.5,-5.7,30.45,SW,232,0.0,2.0,82,0.00,,SKC,0.00,VWS V14.01,2013-01-14 14:43:00,
2013-01-14 08:48:00,-1.4,-5.3,30.45,WNW,287,0.0,0.0,83,0.00,,SKC,0.00,VWS V14.01,2013-01-14 14:48:00,
2013-01-14 08:53:00,-1.1,-5.0,30.45,West,262,0.0,2.0,83,0.00,,SKC,0.00,VWS V14.01,2013-01-14 14:53:00,
2013-01-14 09:02:00,-0.6,-4.5,30.45,WSW,244,0.0,3.0,83,0.00,,SKC,0.00,VWS V14.01,2013-01-14 15:02:00,
2013-01-14 09:07:00,-0.1,-4.0,30.45,SW,219,3.0,3.0,83,0.00,,SKC,0.00,VWS V14.01,2013-01-14 15:07:00,
2013-01-14 09:12:00,0.1,-4.1,30.45,SW,234,0.0,3.0,82,0.00,,SKC,0.00,VWS V14.01,2013-01-14 15:12:00,
2013-01-14 09:17:00,0.4,-3.8,30.45,WNW,302,2.0,4.0,82,0.00,,SKC,0.00,VWS V14.01,2013-01-14 15:17:00,
2013-01-14 09:22:00,0.5,-3.7,30.45,WNW,299,2.0,2.0,82,0.00,,SKC,0.00,VWS V14.01,2013-01-14 15:22:00,
2013-01-14 09:27:00,0.8,-3.4,30.46,West,269,3.0,6.0,82,0.00,,SKC,0.00,VWS V14.01,2013-01-14 15:27:00,
2013-01-14 09:32:00,1.0,-3.5,30.46,West,279,0.0,4.0,81,0.00,,SKC,0.00,VWS V14.01,2013-01-14 15:32:00,
2013-01-14 09:37:00,1.2,-3.3,30.46,West,279,1.0,3.0,81,0.00,,SKC,0.00,VWS V14.01,2013-01-14 15:37:00,
2013-01-14 09:42:00,1.5,-3.0,30.46,West,269,3.0,4.0,81,0.00,,SKC,0.00,VWS V14.01,2013-01-14 15:42:00,
2013-01-14 09:47:00,1.7,-3.0,30.45,NW,309,5.0,5.0,80,0.00,,SKC,0.00,VWS V14.01,2013-01-14 15:47:00,
2013-01-14 09:52:00,1.9,-2.8,30.45,WNW,292,0.0,5.0,80,0.00,,SKC,0.00,VWS V14.01,2013-01-14 15:52:00,
2013-01-14 09:57:00,2.2,-2.5,30.46,West,275,4.0,5.0,80,0.00,,SKC,0.00,VWS V14.01,2013-01-14 15:57:00,
2013-01-14 10:02:00,2.4,-2.6,30.46,West,279,2.0,4.0,79,0.00,,SKC,0.00,VWS V14.01,2013-01-14 16:02:00,
2013-01-14 10:07:00,2.6,-2.4,30.46,WNW,292,2.0,5.0,79,0.00,,SKC,0.00,VWS V14.01,2013-01-14 16:07:00,
2013-01-14 10:12:00,2.9,-2.1,30.46,SW,230,0.0,6.0,79,0.00,,SKC,0.00,VWS V14.01,2013-01-14 16:12:00,
2013-01-14 10:17:00,3.6,-1.4,30.46,WSW,250,2.0,4.0,79,0.00,,SKC,0.00,VWS V14.01,2013-01-14 16:17:00,
2013-01-14 10:22:00,3.9,-1.4,30.46,WSW,255,4.0,5.0,78,0.00,,SKC,0.00,VWS V14.01,2013-01-14 16:22:00,
2013-01-14 10:27:00,4.3,-1.0,30.46,WSW,252,1.0,4.0,78,0.00,,SKC,0.00,VWS V14.01,2013-01-14 16:27:00,
2013-01-14 10:32:00,4.5,-1.1,30.47,SW,230,3.0,5.0,77,0.00,,SKC,0.00,VWS V14.01,2013-01-14 16:32:00,
2013-01-14 10:37:00,4.6,-1.3,30.47,SW,221,2.0,5.0,76,0.00,,SKC,0.00,VWS V14.01,2013-01-14 16:37:00,
2013-01-14 10:42:00,4.9,-0.7,30.47,SSW,213,0.0,6.0,77,0.00,,SKC,0.00,VWS V14.01,2013-01-14 16:42:00,
2013-01-14 10:47:00,5.1,-0.8,30.47,West,265,2.0,5.0,76,0.00,,SKC,0.00,VWS V14.01,2013-01-14 16:47:00,
2013-01-14 10:52:00,5.3,-0.6,30.47,WSW,246,6.0,6.0,76,0.00,,SKC,0.00,VWS V14.01,2013-01-14 16:52:00,
2013-01-14 10:57:00,5.4,-0.8,30.47,SW,235,0.0,6.0,75,0.00,,SKC,0.00,VWS V14.01,2013-01-14 16:57:00,
2013-01-14 11:02:00,5.7,-0.5,30.46,NNW,329,2.0,6.0,75,0.00,,SKC,0.00,VWS V14.01,2013-01-14 17:02:00,
2013-01-14 11:07:00,6.1,-0.1,30.46,NW,304,6.0,7.0,75,0.00,,SKC,0.00,VWS V14.01,2013-01-14 17:07:00,
2013-01-14 11:12:00,6.1,-0.4,30.46,NW,304,5.0,9.0,74,0.00,,SKC,0.00,VWS V14.01,2013-01-14 17:12:00,
2013-01-14 11:17:00,6.0,-0.8,30.46,NW,309,2.0,7.0,73,0.00,,SKC,0.00,VWS V14.01,2013-01-14 17:17:00,
2013-01-14 11:22:00,6.1,-0.7,30.46,SW,232,3.0,7.0,73,0.00,,SKC,0.00,VWS V14.01,2013-01-14 17:22:00,
2013-01-14 11:27:00,6.4,-0.4,30.46,SW,214,1.0,8.0,73,0.00,,SKC,0.00,VWS V14.01,2013-01-14 17:27:00,
2013-01-14 11:32:00,6.5,-0.3,30.46,West,260,2.0,7.0,73,0.00,,SKC,0.00,VWS V14.01,2013-01-14 17:32:00,
2013-01-14 11:37:00,6.8,0.0,30.45,West,265,3.0,6.0,73,0.00,,SKC,0.00,VWS V14.01,2013-01-14 17:37:00,
2013-01-14 11:42:00,6.9,-0.2,30.45,SSW,204,4.0,10.0,72,0.00,,SKC,0.00,VWS V14.01,2013-01-14 17:42:00,
2013-01-14 11:47:00,7.0,-0.4,30.45,WNW,288,1.0,5.0,71,0.00,,SKC,0.00,VWS V14.01,2013-01-14 17:47:00,
2013-01-14 11:52:00,7.5,0.4,30.45,WNW,296,4.0,7.0,72,0.00,,SKC,0.00,VWS V14.01,2013-01-14 17:52:00,
2013-01-14 11:57:00,7.8,0.4,30.44,SW,227,4.0,10.0,71,0.00,,SKC,0.00,VWS V14.01,2013-01-14 17:57:00,
2013-01-14 12:02:00,8.0,0.6,30.44,WSW,247,6.0,7.0,71,0.00,,SKC,0.00,VWS V14.01,2013-01-14 18:02:00,
2013-01-14 12:07:00,7.9,0.2,30.44,West,274,1.0,9.0,70,0.00,,SKC,0.00,VWS V14.01,2013-01-14 18:07:00,
2013-01-14 12:12:00,8.1,0.7,30.44,WSW,258,1.0,6.0,71,0.00,,SKC,0.00,VWS V14.01,2013-01-14 18:12:00,
2013-01-14 12:17:00,8.2,0.4,30.44,SW,227,2.0,10.0,70,0.00,,SKC,0.00,VWS V14.01,2013-01-14 18:17:00,
2013-01-14 12:22:00,8.3,0.9,30.43,WNW,296,4.0,9.0,71,0.00,,SKC,0.00,VWS V14.01,2013-01-14 18:22:00,
2013-01-14 12:27:00,8.5,1.0,30.43,SSW,201,4.0,10.0,71,0.00,,SKC,0.00,VWS V14.01,2013-01-14 18:27:00,
2013-01-14 12:32:00,8.5,0.7,30.43,SSW,200,4.0,10.0,70,0.00,,SKC,0.00,VWS V14.01,2013-01-14 18:32:00,
2013-01-14 12:37:00,8.5,0.7,30.43,WNW,289,4.0,11.0,70,0.00,,SKC,0.00,VWS V14.01,2013-01-14 18:37:00,
2013-01-14 12:42:00,8.5,0.7,30.43,WSW,245,0.0,7.0,70,0.00,,SKC,0.00,VWS V14.01,2013-01-14 18:42:00,
2013-01-14 12:47:00,8.9,1.1,30.43,NW,322,1.0,6.0,70,0.00,,SKC,0.00,VWS V14.01,2013-01-14 18:47:00,
2013-01-14 12:52:00,9.0,1.2,30.43,SSW,213,2.0,7.0,70,0.00,,SKC,0.00,VWS V14.01,2013-01-14 18:52:00,
2013-01-14 12:57:00,8.9,0.8,30.42,WSW,244,3.0,7.0,69,0.00,,SKC,0.00,VWS V14.01,2013-01-14 18:57:00,
2013-01-14 13:02:00,9.3,1.5,30.42,SW,216,2.0,6.0,70,0.00,,SKC,0.00,VWS V14.01,2013-01-14 19:02:00,
2013-01-14 13:07:00,9.6,1.5,30.42,SSW,207,2.0,9.0,69,0.00,,SKC,0.00,VWS V14.01,2013-01-14 19:07:00,
2013-01-14 13:12:00,9.8,1.7,30.42,SW,230,3.0,8.0,69,0.00,,SKC,0.00,VWS V14.01,2013-01-14 19:12:00,
2013-01-14 13:17:00,9.9,1.5,30.41,SW,232,4.0,8.0,68,0.00,,SKC,0.00,VWS V14.01,2013-01-14 19:17:00,
2013-01-14 13:22:00,9.8,1.4,30.42,SSW,205,4.0,10.0,68,0.00,,SKC,0.00,VWS V14.01,2013-01-14 19:22:00,
2013-01-14 13:27:00,9.6,1.2,30.42,SSW,205,4.0,11.0,68,0.00,,SKC,0.00,VWS V14.01,2013-01-14 19:27:00,
2013-01-14 13:32:00,9.9,1.8,30.41,NW,304,0.0,5.0,69,0.00,,SKC,0.00,VWS V14.01,2013-01-14 19:32:00,
2013-01-14 13:37:00,10.2,2.1,30.41,WNW,283,2.0,6.0,69,0.00,,SKC,0.00,VWS V14.01,2013-01-14 19:37:00,
2013-01-14 13:42:00,10.4,2.0,30.41,WSW,240,6.0,6.0,68,0.00,,SKC,0.00,VWS V14.01,2013-01-14 19:42:00,
2013-01-14 13:47:00,10.5,1.7,30.41,SSW,205,0.0,10.0,67,0.00,,SKC,0.00,VWS V14.01,2013-01-14 19:47:00,
2013-01-14 13:52:00,10.6,1.8,30.41,South,175,3.0,5.0,67,0.00,,SKC,0.00,VWS V14.01,2013-01-14 19:52:00,
2013-01-14 13:57:00,10.3,1.5,30.41,WSW,249,5.0,7.0,67,0.00,,SKC,0.00,VWS V14.01,2013-01-14 19:57:00,
2013-01-14 14:02:00,10.2,1.1,30.41,SW,225,3.0,7.0,66,0.00,,SKC,0.00,VWS V14.01,2013-01-14 20:02:00,
2013-01-14 14:07:00,10.5,1.7,30.41,SSW,199,5.0,7.0,67,0.00,,SKC,0.00,VWS V14.01,2013-01-14 20:07:00,
2013-01-14 14:12:00,10.3,1.5,30.41,SSW,194,5.0,10.0,67,0.00,,SKC,0.00,VWS V14.01,2013-01-14 20:12:00,
2013-01-14 14:17:00,9.9,1.1,30.41,South,187,5.0,10.0,67,0.00,,SKC,0.00,VWS V14.01,2013-01-14 20:17:00,
2013-01-14 14:22:00,9.9,1.1,30.42,SSW,200,8.0,11.0,67,0.00,,SKC,0.00,VWS V14.01,2013-01-14 20:22:00,
2013-01-14 14:27:00,10.1,1.3,30.41,South,185,3.0,6.0,67,0.00,,SKC,0.00,VWS V14.01,2013-01-14 20:27:00,
2013-01-14 14:32:00,10.3,1.5,30.41,South,179,5.0,6.0,67,0.00,,SKC,0.00,VWS V14.01,2013-01-14 20:32:00,
2013-01-14 14:37:00,10.4,1.3,30.41,SSW,200,6.0,7.0,66,0.00,,SKC,0.00,VWS V14.01,2013-01-14 20:37:00,
2013-01-14 14:42:00,10.7,1.9,30.40,SSW,207,1.0,6.0,67,0.00,,SKC,0.00,VWS V14.01,2013-01-14 20:42:00,
2013-01-14 14:47:00,11.0,1.9,30.40,SSW,192,0.0,4.0,66,0.00,,SKC,0.00,VWS V14.01,2013-01-14 20:47:00,
2013-01-14 14:52:00,11.2,2.1,30.40,SSW,213,3.0,6.0,66,0.00,,SKC,0.00,VWS V14.01,2013-01-14 20:52:00,
2013-01-14 14:57:00,11.0,1.5,30.40,South,188,6.0,9.0,65,0.00,,SKC,0.00,VWS V14.01,2013-01-14 20:57:00,
2013-01-14 15:02:00,10.8,1.7,30.40,SSE,164,3.0,7.0,66,0.00,,SKC,0.00,VWS V14.01,2013-01-14 21:02:00,
2013-01-14 15:07:00,10.7,1.9,30.40,SW,215,3.0,7.0,67,0.00,,SKC,0.00,VWS V14.01,2013-01-14 21:07:00,
2013-01-14 15:12:00,10.6,1.8,30.40,SSE,150,6.0,6.0,67,0.00,,SKC,0.00,VWS V14.01,2013-01-14 21:12:00,
2013-01-14 15:17:00,10.3,1.5,30.41,SSW,195,7.0,8.0,67,0.00,,SKC,0.00,VWS V14.01,2013-01-14 21:17:00,
2013-01-14 15:22:00,10.5,1.7,30.40,SSW,192,6.0,9.0,67,0.00,,SKC,0.00,VWS V14.01,2013-01-14 21:22:00,
2013-01-14 15:27:00,10.3,1.5,30.40,SSE,166,4.0,6.0,67,0.00,,SKC,0.00,VWS V14.01,2013-01-14 21:27:00,
2013-01-14 15:32:00,10.2,1.4,30.40,SSE,164,3.0,6.0,67,0.00,,SKC,0.00,VWS V14.01,2013-01-14 21:32:00,
2013-01-14 15:37:00,10.3,1.5,30.40,SSE,168,4.0,5.0,67,0.00,,SKC,0.00,VWS V14.01,2013-01-14 21:37:00,
2013-01-14 15:42:00,10.0,1.6,30.40,SSE,161,2.0,6.0,68,0.00,,SKC,0.00,VWS V14.01,2013-01-14 21:42:00,
2013-01-14 15:47:00,9.4,1.3,30.40,SSE,155,7.0,7.0,69,0.00,,SKC,0.00,VWS V14.01,2013-01-14 21:47:00,
2013-01-14 15:52:00,8.8,1.0,30.40,SSE,153,6.0,11.0,70,0.00,,SKC,0.00,VWS V14.01,2013-01-14 21:52:00,
2013-01-14 15:56:00,8.5,1.0,30.40,SSE,161,5.0,8.0,71,0.00,,SKC,0.00,VWS V14.01,2013-01-14 21:56:00,
2013-01-14 16:01:00,8.3,0.9,30.41,South,179,6.0,10.0,71,0.00,,SKC,0.00,VWS V14.01,2013-01-14 22:01:00,
2013-01-14 16:06:00,8.1,0.7,30.41,South,171,6.0,7.0,71,0.00,,SKC,0.00,VWS V14.01,2013-01-14 22:06:00,
2013-01-14 16:11:00,8.1,0.7,30.41,South,185,6.0,9.0,71,0.00,,SKC,0.00,VWS V14.01,2013-01-14 22:11:00,
2013-01-14 16:16:00,8.0,0.9,30.41,South,169,5.0,10.0,72,0.00,,SKC,0.00,VWS V14.01,2013-01-14 22:16:00,
2013-01-14 16:22:00,7.7,0.6,30.41,South,176,5.0,9.0,72,0.00,,SKC,0.00,VWS V14.01,2013-01-14 22:22:00,
2013-01-14 16:27:00,7.7,0.6,30.41,South,172,6.0,8.0,72,0.00,,SKC,0.00,VWS V14.01,2013-01-14 22:27:00,
2013-01-14 16:32:00,7.7,0.6,30.41,South,173,2.0,7.0,72,0.00,,SKC,0.00,VWS V14.01,2013-01-14 22:32:00,
2013-01-14 16:37:00,7.7,0.9,30.41,South,187,3.0,7.0,73,0.00,,SKC,0.00,VWS V14.01,2013-01-14 22:37:00,
2013-01-14 16:42:00,7.8,1.0,30.41,South,173,5.0,6.0,73,0.00,,SKC,0.00,VWS V14.01,2013-01-14 22:42:00,
2013-01-14 16:47:00,7.8,1.0,30.41,SSW,194,4.0,5.0,73,0.00,,SKC,0.00,VWS V14.01,2013-01-14 22:47:00,
2013-01-14 16:52:00,7.9,1.1,30.41,SSW,200,2.0,6.0,73,0.00,,SKC,0.00,VWS V14.01,2013-01-14 22:52:00,
2013-01-14 16:56:00,7.9,1.1,30.42,South,182,2.0,4.0,73,0.00,,SKC,0.00,VWS V14.01,2013-01-14 22:56:00,
2013-01-14 17:01:00,8.0,1.2,30.41,South,173,3.0,5.0,73,0.00,,SKC,0.00,VWS V14.01,2013-01-14 23:01:00,
2013-01-14 17:06:00,8.0,1.5,30.41,South,175,2.0,5.0,74,0.00,,SKC,0.00,VWS V14.01,2013-01-14 23:06:00,
2013-01-14 17:11:00,8.1,1.5,30.42,South,183,3.0,4.0,74,0.00,,SKC,0.00,VWS V14.01,2013-01-14 23:11:00,
2013-01-14 17:16:00,8.1,1.5,30.41,South,173,2.0,4.0,74,0.00,,SKC,0.00,VWS V14.01,2013-01-14 23:16:00,
2013-01-14 17:21:00,8.2,1.6,30.41,South,176,5.0,7.0,74,0.00,,SKC,0.00,VWS V14.01,2013-01-14 23:21:00,
2013-01-14 17:26:00,8.2,1.6,30.41,SSE,161,6.0,7.0,74,0.00,,SKC,0.00,VWS V14.01,2013-01-14 23:26:00,
2013-01-14 17:31:00,8.2,1.6,30.42,SW,230,7.0,7.0,74,0.00,,SKC,0.00,VWS V14.01,2013-01-14 23:31:00,
2013-01-14 17:36:00,8.2,1.6,30.42,South,182,3.0,8.0,74,0.00,,SKC,0.00,VWS V14.01,2013-01-14 23:36:00,
2013-01-14 17:41:00,8.2,1.6,30.42,SSW,199,4.0,10.0,74,0.00,,SKC,0.00,VWS V14.01,2013-01-14 23:41:00,
2013-01-14 17:46:00,8.2,1.6,30.42,South,186,4.0,7.0,74,0.00,,SKC,0.00,VWS V14.01,2013-01-14 23:46:00,
2013-01-14 17:51:00,8.2,1.6,30.42,SSE,160,3.0,6.0,74,0.00,,SKC,0.00,VWS V14.01,2013-01-14 23:51:00,
2013-01-14 17:57:00,8.2,1.6,30.41,SSE,160,4.0,8.0,74,0.00,,SKC,0.00,VWS V14.01,2013-01-14 23:57:00,
2013-01-14 18:02:00,8.2,1.9,30.41,SSE,160,4.0,9.0,75,0.00,,SKC,0.00,VWS V14.01,2013-01-15 00:02:00,
2013-01-14 18:06:00,8.2,1.9,30.41,SSE,163,6.0,7.0,75,0.00,,SKC,0.00,VWS V14.01,2013-01-15 00:06:00,
2013-01-14 18:11:00,8.1,1.8,30.40,South,182,9.0,10.0,75,0.00,,SKC,0.00,VWS V14.01,2013-01-15 00:11:00,
2013-01-14 18:17:00,7.9,1.6,30.41,SSE,157,7.0,9.0,75,0.00,,SKC,0.00,VWS V14.01,2013-01-15 00:17:00,
2013-01-14 18:21:00,7.8,1.5,30.41,South,171,11.0,12.0,75,0.00,,SKC,0.00,VWS V14.01,2013-01-15 00:21:00,
2013-01-14 18:26:00,7.7,1.7,30.41,South,177,10.0,13.0,76,0.00,,SKC,0.00,VWS V14.01,2013-01-15 00:26:00,
2013-01-14 18:31:00,7.7,1.7,30.41,South,185,6.0,10.0,76,0.00,,SKC,0.00,VWS V14.01,2013-01-15 00:31:00,
2013-01-14 18:36:00,7.6,1.6,30.42,SSW,192,5.0,10.0,76,0.00,,SKC,0.00,VWS V14.01,2013-01-15 00:36:00,
2013-01-14 18:41:00,7.6,1.6,30.41,SSW,192,9.0,11.0,76,0.00,,SKC,0.00,VWS V14.01,2013-01-15 00:41:00,
2013-01-14 18:46:00,7.7,1.7,30.41,South,183,5.0,12.0,76,0.00,,SKC,0.00,VWS V14.01,2013-01-15 00:46:00,
2013-01-14 18:51:00,7.7,2.0,30.41,SSE,167,6.0,7.0,77,0.00,,SKC,0.00,VWS V14.01,2013-01-15 00:51:00,
2013-01-14 18:56:00,7.7,2.0,30.40,South,172,4.0,9.0,77,0.00,,SKC,0.00,VWS V14.01,2013-01-15 00:56:00,
2013-01-14 19:01:00,7.7,2.0,30.40,South,188,6.0,11.0,77,0.00,,SKC,0.00,VWS V14.01,2013-01-15 01:01:00,
2013-01-14 19:06:00,7.7,2.0,30.40,South,171,4.0,10.0,77,0.00,,SKC,0.00,VWS V14.01,2013-01-15 01:06:00,
2013-01-14 19:11:00,7.7,2.0,30.40,SSE,161,6.0,9.0,77,0.00,,SKC,0.00,VWS V14.01,2013-01-15 01:11:00,
2013-01-14 19:16:00,7.7,2.0,30.39,SSE,162,6.0,10.0,77,0.00,,SKC,0.00,VWS V14.01,2013-01-15 01:16:00,
2013-01-14 19:21:00,7.6,2.2,30.38,SSE,150,2.0,9.0,78,0.00,,SKC,0.00,VWS V14.01,2013-01-15 01:21:00,
2013-01-14 19:26:00,7.5,1.8,30.39,SSE,156,5.0,6.0,77,0.00,,SKC,0.00,VWS V14.01,2013-01-15 01:26:00,
2013-01-14 19:31:00,7.5,2.1,30.39,SSE,153,3.0,5.0,78,0.00,,SKC,0.00,VWS V14.01,2013-01-15 01:31:00,
2013-01-14 19:36:00,7.6,2.2,30.39,SSE,163,5.0,7.0,78,0.00,,SKC,0.00,VWS V14.01,2013-01-15 01:36:00,
2013-01-14 19:41:00,7.6,2.2,30.39,SSE,163,6.0,9.0,78,0.00,,SKC,0.00,VWS V14.01,2013-01-15 01:41:00,
2013-01-14 19:46:00,7.6,2.2,30.39,SSE,167,5.0,9.0,78,0.00,,SKC,0.00,VWS V14.01,2013-01-15 01:46:00,
2013-01-14 19:51:00,7.6,1.9,30.38,SSE,165,8.0,10.0,77,0.00,,SKC,0.00,VWS V14.01,2013-01-15 01:51:00,
2013-01-14 19:56:00,7.7,2.0,30.38,SSE,157,5.0,10.0,77,0.00,,SKC,0.00,VWS V14.01,2013-01-15 01:56:00,
2013-01-14 20:01:00,7.8,2.1,30.38,South,170,7.0,10.0,77,0.00,,SKC,0.00,VWS V14.01,2013-01-15 02:01:00,
2013-01-14 20:06:00,7.8,2.1,30.38,SSE,164,6.0,10.0,77,0.00,,SKC,0.00,VWS V14.01,2013-01-15 02:06:00,
2013-01-14 20:11:00,7.8,2.1,30.38,South,179,5.0,10.0,77,0.00,,SKC,0.00,VWS V14.01,2013-01-15 02:11:00,
2013-01-14 20:16:00,7.8,2.4,30.38,SSE,164,9.0,11.0,78,0.00,,SKC,0.00,VWS V14.01,2013-01-15 02:16:00,
2013-01-14 20:21:00,7.8,2.1,30.38,South,190,6.0,12.0,77,0.00,,SKC,0.00,VWS V14.01,2013-01-15 02:21:00,
2013-01-14 20:26:00,7.8,2.4,30.38,SSE,161,8.0,8.0,78,0.00,,SKC,0.00,VWS V14.01,2013-01-15 02:26:00,
2013-01-14 20:31:00,7.9,2.5,30.38,South,176,8.0,10.0,78,0.00,,SKC,0.00,VWS V14.01,2013-01-15 02:31:00,
2013-01-14 20:36:00,7.9,2.5,30.38,SSW,195,9.0,10.0,78,0.00,,SKC,0.00,VWS V14.01,2013-01-15 02:36:00,
2013-01-14 20:41:00,8.0,2.6,30.38,South,174,5.0,9.0,78,0.00,,SKC,0.00,VWS V14.01,2013-01-15 02:41:00,
2013-01-14 20:46:00,8.0,2.6,30.38,South,189,6.0,9.0,78,0.00,,SKC,0.00,VWS V14.01,2013-01-15 02:46:00,
2013-01-14 20:51:00,8.0,2.6,30.39,SSW,194,5.0,9.0,78,0.00,,SKC,0.00,VWS V14.01,2013-01-15 02:51:00,
2013-01-14 20:56:00,8.1,2.7,30.38,South,170,4.0,7.0,78,0.00,,SKC,0.00,VWS V14.01,2013-01-15 02:56:00,
2013-01-14 21:01:00,8.1,2.7,30.37,South,184,5.0,6.0,78,0.00,,SKC,0.00,VWS V14.01,2013-01-15 03:01:00,
2013-01-14 21:06:00,8.1,2.7,30.36,SSE,161,6.0,7.0,78,0.00,,SKC,0.00,VWS V14.01,2013-01-15 03:06:00,
2013-01-14 21:11:00,8.2,2.8,30.36,SSE,152,7.0,8.0,78,0.00,,SKC,0.00,VWS V14.01,2013-01-15 03:11:00,
2013-01-14 21:16:00,8.3,2.9,30.35,SSE,164,6.0,11.0,78,0.00,,SKC,0.00,VWS V14.01,2013-01-15 03:16:00,
2013-01-14 21:21:00,8.3,2.9,30.35,SSE,158,8.0,10.0,78,0.00,,SKC,0.00,VWS V14.01,2013-01-15 03:21:00,
2013-01-14 21:26:00,8.4,3.0,30.35,SSE,157,5.0,9.0,78,0.00,,SKC,0.00,VWS V14.01,2013-01-15 03:26:00,
2013-01-14 21:31:00,8.4,3.0,30.35,SSE,160,5.0,10.0,78,0.00,,SKC,0.00,VWS V14.01,2013-01-15 03:31:00,
2013-01-14 21:36:00,8.4,3.0,30.34,SSE,149,6.0,10.0,78,0.00,,SKC,0.00,VWS V14.01,2013-01-15 03:36:00,
2013-01-14 21:41:00,8.4,3.0,30.34,SSE,159,4.0,8.0,78,0.00,,SKC,0.00,VWS V14.01,2013-01-15 03:41:00,
2013-01-14 21:46:00,8.5,3.1,30.34,SSE,160,5.0,9.0,78,0.00,,SKC,0.00,VWS V14.01,2013-01-15 03:46:00,
2013-01-14 21:51:00,8.5,3.1,30.34,SSE,158,7.0,11.0,78,0.00,,SKC,0.00,VWS V14.01,2013-01-15 03:51:00,
2013-01-14 21:56:00,8.6,3.2,30.34,SSE,156,4.0,11.0,78,0.00,,SKC,0.00,VWS V14.01,2013-01-15 03:56:00,
2013-01-14 22:01:00,8.6,3.2,30.34,SSE,163,4.0,7.0,78,0.00,,SKC,0.00,VWS V14.01,2013-01-15 04:01:00,
2013-01-14 22:06:00,8.7,3.3,30.33,South,178,5.0,7.0,78,0.00,,SKC,0.00,VWS V14.01,2013-01-15 04:06:00,
2013-01-14 22:11:00,8.8,3.6,30.33,SSE,155,6.0,7.0,79,0.00,,SKC,0.00,VWS V14.01,2013-01-15 04:11:00,
2013-01-14 22:16:00,8.8,3.4,30.32,SSE,155,5.0,9.0,78,0.00,,SKC,0.00,VWS V14.01,2013-01-15 04:16:00,
2013-01-14 22:21:00,8.8,3.6,30.33,South,169,7.0,7.0,79,0.00,,SKC,0.00,VWS V14.01,2013-01-15 04:21:00,
2013-01-14 22:26:00,8.9,3.5,30.32,SSE,165,5.0,8.0,78,0.00,,SKC,0.00,VWS V14.01,2013-01-15 04:26:00,
2013-01-14 22:31:00,8.9,3.7,30.32,SSE,159,9.0,10.0,79,0.00,,SKC,0.00,VWS V14.01,2013-01-15 04:31:00,
2013-01-14 22:36:00,8.9,3.7,30.32,SSE,164,6.0,12.0,79,0.00,,SKC,0.00,VWS V14.01,2013-01-15 04:36:00,
2013-01-14 22:41:00,8.9,3.7,30.32,SSE,165,6.0,8.0,79,0.00,,SKC,0.00,VWS V14.01,2013-01-15 04:41:00,
2013-01-14 22:46:00,9.0,3.8,30.32,SE,146,5.0,6.0,79,0.00,,SKC,0.00,VWS V14.01,2013-01-15 04:46:00,
2013-01-14 22:51:00,9.1,3.9,30.32,SSE,160,5.0,6.0,79,0.00,,SKC,0.00,VWS V14.01,2013-01-15 04:51:00,
2013-01-14 22:56:00,9.1,3.9,30.32,SSE,160,4.0,6.0,79,0.00,,SKC,0.00,VWS V14.01,2013-01-15 04:56:00,
2013-01-14 23:01:00,9.2,4.0,30.32,SSE,150,3.0,6.0,79,0.00,,SKC,0.00,VWS V14.01,2013-01-15 05:01:00,
2013-01-14 23:02:00,9.2,4.0,30.33,SSE,162,4.0,6.0,79,0.00,,SKC,0.00,VWS V14.01,2013-01-15 05:02:00,
2013-01-14 23:07:00,9.2,4.3,30.32,SSE,152,2.0,4.0,80,0.00,,SKC,0.00,VWS V14.01,2013-01-15 05:07:00,
2013-01-14 23:12:00,9.3,4.1,30.32,South,171,2.0,5.0,79,0.00,,SKC,0.00,VWS V14.01,2013-01-15 05:12:00,
2013-01-14 23:17:00,9.3,4.4,30.32,South,169,2.0,5.0,80,0.00,,SKC,0.00,VWS V14.01,2013-01-15 05:17:00,
2013-01-14 23:22:00,9.3,4.4,30.32,SSE,166,3.0,4.0,80,0.00,,SKC,0.00,VWS V14.01,2013-01-15 05:22:00,
2013-01-14 23:27:00,9.3,4.1,30.32,South,182,2.0,4.0,79,0.00,,SKC,0.00,VWS V14.01,2013-01-15 05:27:00,
2013-01-14 23:32:00,9.3,4.1,30.31,SSE,165,3.0,4.0,79,0.00,,SKC,0.00,VWS V14.01,2013-01-15 05:32:00,
2013-01-14 23:37:00,9.1,3.9,30.31,South,175,2.0,4.0,79,0.00,,SKC,0.00,VWS V14.01,2013-01-15 05:37:00,
2013-01-14 23:42:00,8.6,3.4,30.31,South,172,2.0,4.0,79,0.00,,SKC,0.00,VWS V14.01,2013-01-15 05:42:00,
2013-01-14 23:47:00,8.2,3.3,30.31,South,171,3.0,4.0,80,0.00,,SKC,0.00,VWS V14.01,2013-01-15 05:47:00,
2013-01-14 23:52:00,7.7,2.8,30.30,SSE,164,3.0,6.0,80,0.00,,SKC,0.00,VWS V14.01,2013-01-15 05:52:00,
2013-01-14 23:57:00,7.5,2.6,30.30,SSE,164,3.0,4.0,80,0.00,,SKC,0.00,VWS V14.01,2013-01-15 05:57:00,